Time;durP1;ratioP1;P1;durP2;ratioP2;P2;SDS_P1;SDS_P2;PMS_P1;PMS_P2;Temp;Humidity;BMP_temperature;BMP_pressure;BME280_temperature;BME280_humidity;BME280_pressure;Samples;Min_cycle;Max_cycle;Signal;HPM_P1;HPM_P2
2021/12/30 00:00:50;;;;;;;4.97;3.40;;;2.20;99.90;;;;;;5031539;28;20560;-80
2021/12/30 00:03:15;;;;;;;5.15;3.28;;;2.20;99.90;;;;;;5032878;28;20037;-79
2021/12/30 00:05:42;;;;;;;6.38;3.70;;;2.10;99.90;;;;;;5030097;28;20116;-79
2021/12/30 00:08:08;;;;;;;5.30;3.33;;;2.10;99.90;;;;;;5048433;28;20108;-79
2021/12/30 00:10:34;;;;;;;7.28;3.67;;;2.10;99.90;;;;;;5048157;28;20021;-80
2021/12/30 00:13:00;;;;;;;11.95;7.00;;;2.10;99.90;;;;;;5033797;28;20477;-80
2021/12/30 00:15:26;;;;;;;8.68;4.97;;;2.00;99.90;;;;;;5032670;28;20037;-79
2021/12/30 00:17:52;;;;;;;6.25;4.10;;;2.10;99.90;;;;;;5032275;28;20053;-80
2021/12/30 00:20:18;;;;;;;5.90;3.58;;;2.00;99.90;;;;;;5031172;28;20496;-79
2021/12/30 00:22:44;;;;;;;4.65;2.95;;;2.10;99.90;;;;;;5046829;28;20022;-80
2021/12/30 00:25:11;;;;;;;4.32;2.65;;;2.10;99.90;;;;;;5036756;28;20022;-80
2021/12/30 00:27:38;;;;;;;4.50;2.97;;;2.10;99.90;;;;;;5052629;28;20028;-80
2021/12/30 00:30:07;;;;;;;3.05;2.00;;;2.10;99.90;;;;;;5036865;28;20033;-80
2021/12/30 00:32:33;;;;;;;3.47;2.17;;;2.20;99.90;;;;;;5035473;28;20500;-80
2021/12/30 00:34:59;;;;;;;2.90;1.83;;;2.20;99.90;;;;;;5036645;28;20444;-80
2021/12/30 00:37:25;;;;;;;3.80;2.35;;;2.20;99.90;;;;;;5034900;28;20034;-80
2021/12/30 00:39:51;;;;;;;3.60;2.10;;;2.10;99.90;;;;;;5036501;28;20488;-80
2021/12/30 00:42:17;;;;;;;4.38;2.60;;;2.10;99.90;;;;;;5036538;28;20029;-80
2021/12/30 00:44:42;;;;;;;3.75;2.58;;;2.10;99.90;;;;;;5036831;28;20022;-80
2021/12/30 00:47:08;;;;;;;3.15;2.25;;;2.10;99.90;;;;;;5035890;28;20168;-80
2021/12/30 00:49:34;;;;;;;3.35;2.13;;;2.10;99.90;;;;;;5036099;28;20393;-80
2021/12/30 00:52:01;;;;;;;3.90;2.50;;;2.10;99.90;;;;;;5035043;28;20060;-79
2021/12/30 00:54:27;;;;;;;3.40;2.20;;;2.10;99.90;;;;;;5034693;28;20052;-79
2021/12/30 00:56:52;;;;;;;3.70;2.72;;;2.10;99.90;;;;;;5035991;28;20035;-80
2021/12/30 00:59:18;;;;;;;3.60;2.50;;;2.10;99.90;;;;;;5036550;28;20473;-80
2021/12/30 01:01:44;;;;;;;3.63;2.38;;;2.00;99.90;;;;;;5034242;28;20029;-79
2021/12/30 01:04:10;;;;;;;2.88;2.25;;;2.00;99.90;;;;;;5030964;28;20044;-79
2021/12/30 01:06:36;;;;;;;3.35;2.30;;;2.00;99.90;;;;;;5036295;28;20390;-80
2021/12/30 01:09:04;;;;;;;3.47;2.17;;;2.10;99.90;;;;;;5037411;28;20025;-80
2021/12/30 01:11:31;;;;;;;4.07;2.42;;;2.00;99.90;;;;;;5035057;28;20037;-80
2021/12/30 01:14:02;;;;;;;4.28;2.80;;;2.00;99.90;;;;;;5035547;28;20037;-80
2021/12/30 01:16:30;;;;;;;4.05;2.50;;;2.00;99.90;;;;;;5033132;28;20101;-80
2021/12/30 01:21:28;;;;;;;11.25;5.57;;;1.90;99.90;;;;;;5032814;28;20033;-79
2021/12/30 01:23:56;;;;;;;7.50;3.72;;;1.90;99.90;;;;;;5032669;28;20037;-79
2021/12/30 01:26:23;;;;;;;17.83;8.15;;;1.90;99.90;;;;;;5034803;28;20124;-80
2021/12/30 01:28:49;;;;;;;16.20;8.15;;;1.90;99.90;;;;;;5036182;28;20022;-80
2021/12/30 01:31:16;;;;;;;13.57;7.22;;;1.90;99.90;;;;;;5034068;28;20021;-80
2021/12/30 01:33:44;;;;;;;11.65;5.88;;;1.90;99.90;;;;;;5082208;23;20072;-72
2021/12/30 01:36:11;;;;;;;11.65;6.18;;;1.90;99.90;;;;;;5075817;28;20017;-72
2021/12/30 01:38:38;;;;;;;11.30;5.68;;;1.90;99.90;;;;;;5075613;28;20109;-72
2021/12/30 01:41:05;;;;;;;6.43;3.58;;;2.00;99.90;;;;;;5075597;28;20017;-72
2021/12/30 01:43:33;;;;;;;4.70;2.80;;;2.00;99.90;;;;;;5075854;28;20107;-72
2021/12/30 01:45:58;;;;;;;4.28;2.65;;;2.00;99.90;;;;;;5075855;28;20021;-72
2021/12/30 01:48:25;;;;;;;4.70;2.45;;;2.00;99.90;;;;;;5075589;28;20390;-72
2021/12/30 01:50:52;;;;;;;4.78;2.50;;;1.90;99.90;;;;;;5070191;28;20393;-72
2021/12/30 01:53:17;;;;;;;4.75;2.75;;;1.90;99.90;;;;;;5055235;28;20025;-72
2021/12/30 01:55:45;;;;;;;4.72;2.80;;;1.90;99.90;;;;;;5055695;28;20032;-72
2021/12/30 01:58:11;;;;;;;5.50;3.38;;;1.90;99.90;;;;;;5055372;28;20025;-72
2021/12/30 02:00:40;;;;;;;5.53;3.17;;;1.90;99.90;;;;;;5055270;28;20072;-72
2021/12/30 02:03:06;;;;;;;5.13;3.00;;;1.90;99.90;;;;;;5055232;28;20079;-72
2021/12/30 02:05:33;;;;;;;6.28;3.97;;;1.90;99.90;;;;;;5055268;28;20024;-71
2021/12/30 02:07:59;;;;;;;13.07;6.07;;;1.90;99.90;;;;;;5054945;28;20027;-72
2021/12/30 02:10:25;;;;;;;9.32;5.32;;;1.90;99.90;;;;;;5055081;28;20028;-71
2021/12/30 02:12:51;;;;;;;8.02;4.70;;;1.90;99.90;;;;;;5053829;28;20048;-71
2021/12/30 02:15:19;;;;;;;7.10;4.65;;;2.00;99.90;;;;;;5055050;28;20032;-72
2021/12/30 02:17:48;;;;;;;6.10;3.72;;;2.00;99.90;;;;;;5055009;28;20112;-72
2021/12/30 02:20:40;;;;;;;7.70;4.75;;;1.90;99.90;;;;;;5054836;28;20104;-73
2021/12/30 02:23:06;;;;;;;;;;;1.90;99.90;;;;;;5055218;28;20052;-72
2021/12/30 02:25:31;;;;;;;4.25;2.63;;;1.90;99.90;;;;;;5053585;28;19911;-72
2021/12/30 02:27:57;;;;;;;5.35;2.80;;;1.90;99.90;;;;;;5055356;28;20033;-72
2021/12/30 02:30:23;;;;;;;4.25;2.70;;;1.90;99.90;;;;;;5054626;28;20130;-72
2021/12/30 02:32:49;;;;;;;4.60;2.72;;;1.90;99.90;;;;;;5055030;28;20043;-72
2021/12/30 02:35:14;;;;;;;4.47;2.95;;;1.90;99.90;;;;;;5054653;28;20420;-72
2021/12/30 02:37:40;;;;;;;4.95;3.05;;;1.90;99.90;;;;;;5054356;28;20055;-72
2021/12/30 02:40:06;;;;;;;6.10;3.70;;;1.80;99.90;;;;;;5054488;28;20033;-72
2021/12/30 02:42:32;;;;;;;5.53;3.53;;;1.80;99.90;;;;;;5054720;28;20075;-71
2021/12/30 02:44:58;;;;;;;6.43;3.60;;;1.80;99.90;;;;;;5053930;28;20022;-72
2021/12/30 02:47:23;;;;;;;7.15;4.20;;;1.80;99.90;;;;;;5054381;28;20036;-72
2021/12/30 02:49:49;;;;;;;7.38;3.53;;;1.80;99.90;;;;;;5054339;28;20032;-72
2021/12/30 02:52:15;;;;;;;5.63;3.40;;;1.80;99.90;;;;;;5054270;28;20028;-71
2021/12/30 02:54:42;;;;;;;5.05;3.20;;;1.80;99.90;;;;;;5054049;28;20035;-72
2021/12/30 02:57:09;;;;;;;6.07;3.75;;;1.80;99.90;;;;;;5054502;28;20074;-71
2021/12/30 02:59:35;;;;;;;5.82;3.90;;;1.80;99.90;;;;;;5054552;28;20079;-71
2021/12/30 03:02:02;;;;;;;7.85;4.45;;;1.80;99.90;;;;;;5054084;28;20481;-72
2021/12/30 03:04:29;;;;;;;10.45;5.80;;;1.80;99.90;;;;;;5054217;28;20056;-72
2021/12/30 03:06:56;;;;;;;8.55;5.13;;;1.80;99.90;;;;;;5054424;28;20143;-72
2021/12/30 03:09:23;;;;;;;14.48;7.38;;;1.80;99.90;;;;;;5053969;28;20044;-72
2021/12/30 03:11:48;;;;;;;15.48;7.75;;;1.80;99.90;;;;;;5053959;28;20029;-72
2021/12/30 03:14:14;;;;;;;13.35;6.88;;;1.80;99.90;;;;;;5053931;28;20029;-71
2021/12/30 03:16:42;;;;;;;10.65;6.07;;;1.80;99.90;;;;;;5053886;28;20033;-72
2021/12/30 03:19:08;;;;;;;9.23;4.15;;;1.80;99.90;;;;;;5054018;28;20046;-72
2021/12/30 03:21:34;;;;;;;4.82;2.67;;;1.80;99.90;;;;;;5053819;28;20384;-72
2021/12/30 03:24:01;;;;;;;4.55;2.58;;;1.80;99.90;;;;;;5053645;28;20032;-72
2021/12/30 03:26:27;;;;;;;6.30;3.53;;;1.80;99.90;;;;;;5053969;28;20074;-71
2021/12/30 03:28:53;;;;;;;8.57;3.85;;;1.80;99.90;;;;;;5052253;28;20060;-72
2021/12/30 03:31:20;;;;;;;6.38;3.55;;;1.80;99.90;;;;;;5053931;28;20052;-71
2021/12/30 03:33:46;;;;;;;6.35;3.30;;;1.80;99.90;;;;;;5053499;28;20041;-72
2021/12/30 03:36:14;;;;;;;8.90;4.03;;;1.80;99.90;;;;;;5053543;28;20110;-72
2021/12/30 03:38:45;;;;;;;7.03;3.70;;;1.80;99.90;;;;;;5053476;28;20033;-72
2021/12/30 03:41:13;;;;;;;;;;;1.80;99.90;;;;;;5054247;28;20029;-72
2021/12/30 03:43:38;;;;;;;6.57;3.50;;;1.80;99.90;;;;;;5053643;28;19908;-72
2021/12/30 03:46:05;;;;;;;5.68;3.58;;;1.80;99.90;;;;;;5053547;28;20096;-72
2021/12/30 03:48:33;;;;;;;5.88;3.58;;;1.80;99.90;;;;;;5053385;28;20029;-71
2021/12/30 03:51:06;;;;;;;6.45;4.28;;;1.80;99.90;;;;;;5053293;28;20017;-72
2021/12/30 03:53:37;;;;;;;6.63;4.47;;;1.90;99.90;;;;;;5053127;28;20120;-72
2021/12/30 03:56:05;;;;;;;6.90;4.10;;;1.90;99.90;;;;;;5052772;28;20515;-71
2021/12/30 03:58:31;;;;;;;6.90;4.10;;;1.80;99.90;;;;;;5053279;28;20039;-71
2021/12/30 04:00:56;;;;;;;7.03;4.45;;;1.80;99.90;;;;;;5053476;28;20025;-71
2021/12/30 04:03:22;;;;;;;7.05;4.78;;;1.80;99.90;;;;;;5053159;28;20033;-71
2021/12/30 04:05:48;;;;;;;6.82;4.50;;;1.80;99.90;;;;;;5053186;28;20025;-71
2021/12/30 04:08:13;;;;;;;6.93;3.85;;;1.80;99.90;;;;;;5052936;28;20427;-72
2021/12/30 04:10:39;;;;;;;6.68;4.40;;;1.80;99.90;;;;;;5053124;28;20024;-71
2021/12/30 04:13:05;;;;;;;6.25;4.10;;;1.80;99.90;;;;;;5053166;28;20166;-71
2021/12/30 04:15:31;;;;;;;7.47;4.65;;;1.70;99.90;;;;;;5053116;28;20033;-71
2021/12/30 04:17:56;;;;;;;6.43;3.85;;;1.70;99.90;;;;;;5053107;28;20057;-71
2021/12/30 04:20:22;;;;;;;7.05;3.70;;;1.70;99.90;;;;;;5052962;28;20025;-71
2021/12/30 04:22:47;;;;;;;12.10;6.05;;;1.70;99.90;;;;;;5053277;28;20021;-71
2021/12/30 04:25:15;;;;;;;12.85;6.88;;;1.70;99.90;;;;;;5052809;28;20048;-71
2021/12/30 04:27:42;;;;;;;10.88;5.45;;;1.70;99.90;;;;;;5053324;28;20100;-71
2021/12/30 04:30:10;;;;;;;8.90;5.20;;;1.70;99.90;;;;;;5052937;28;20385;-71
2021/12/30 04:32:36;;;;;;;8.65;4.65;;;1.70;99.90;;;;;;5052930;28;20449;-71
2021/12/30 04:35:01;;;;;;;6.53;4.03;;;1.70;99.90;;;;;;5053275;28;20067;-71
2021/12/30 04:37:27;;;;;;;6.72;3.60;;;1.70;99.90;;;;;;5052905;28;20021;-71
2021/12/30 04:39:53;;;;;;;6.85;4.35;;;1.80;99.90;;;;;;5052585;28;20100;-71
2021/12/30 04:42:19;;;;;;;7.60;4.80;;;1.80;99.90;;;;;;5052759;28;20025;-71
2021/12/30 04:44:44;;;;;;;8.05;4.78;;;1.80;99.90;;;;;;5052935;28;20021;-71
2021/12/30 04:47:10;;;;;;;7.03;4.68;;;1.80;99.90;;;;;;5052840;28;20017;-71
2021/12/30 04:49:36;;;;;;;6.13;4.47;;;1.80;99.90;;;;;;5052800;28;20369;-71
2021/12/30 04:52:03;;;;;;;7.00;4.28;;;1.80;99.90;;;;;;5052755;28;20108;-71
2021/12/30 04:54:30;;;;;;;9.27;5.00;;;1.80;99.90;;;;;;5052492;28;20096;-71
2021/12/30 04:56:56;;;;;;;6.07;4.25;;;1.80;99.90;;;;;;5052726;28;20048;-71
2021/12/30 04:59:22;;;;;;;6.40;4.30;;;1.80;99.90;;;;;;5052662;28;20036;-71
2021/12/30 05:01:47;;;;;;;6.38;4.47;;;1.80;99.90;;;;;;5051293;28;20029;-71
2021/12/30 05:04:13;;;;;;;6.82;4.57;;;1.80;99.90;;;;;;5053246;28;20025;-71
2021/12/30 05:06:39;;;;;;;7.75;4.55;;;1.80;99.90;;;;;;5052939;28;20040;-71
2021/12/30 05:09:08;;;;;;;7.43;4.90;;;1.80;99.90;;;;;;5056039;28;20028;-72
2021/12/30 05:11:40;;;;;;;9.15;5.88;;;1.80;99.90;;;;;;5056806;28;20021;-71
2021/12/30 05:14:07;;;;;;;10.23;5.97;;;1.80;99.90;;;;;;5056255;28;20124;-72
2021/12/30 05:16:33;;;;;;;9.30;6.40;;;1.80;99.90;;;;;;5056135;28;20475;-71
2021/12/30 05:18:59;;;;;;;11.25;6.60;;;1.80;99.90;;;;;;5056327;28;20028;-71
2021/12/30 05:21:25;;;;;;;12.43;6.88;;;1.90;99.90;;;;;;5055997;28;20021;-72
2021/12/30 05:23:51;;;;;;;10.32;6.40;;;1.90;99.90;;;;;;5055692;28;20078;-72
2021/12/30 05:26:18;;;;;;;10.30;5.60;;;1.90;99.90;;;;;;5055962;28;20024;-72
2021/12/30 05:28:43;;;;;;;9.63;5.78;;;1.90;99.90;;;;;;5056230;28;20017;-71
2021/12/30 05:31:09;;;;;;;60.60;17.95;;;1.90;99.90;;;;;;5056173;28;20032;-71
2021/12/30 05:33:35;;;;;;;32.72;12.60;;;1.90;99.90;;;;;;5054513;28;20037;-71
2021/12/30 05:36:01;;;;;;;44.03;16.60;;;1.90;99.90;;;;;;5054544;28;20393;-71
2021/12/30 05:38:27;;;;;;;36.00;15.02;;;1.90;99.90;;;;;;5055534;28;20079;-70
2021/12/30 05:40:53;;;;;;;36.55;13.75;;;1.90;99.90;;;;;;5055693;28;20118;-71
2021/12/30 05:43:18;;;;;;;20.13;9.20;;;1.80;99.90;;;;;;5055591;28;20028;-71
2021/12/30 05:45:44;;;;;;;10.43;5.20;;;1.80;99.90;;;;;;5055651;28;20492;-71
2021/12/30 05:48:10;;;;;;;9.27;5.22;;;1.80;99.90;;;;;;5055825;28;20372;-71
2021/12/30 05:50:36;;;;;;;8.68;4.60;;;1.80;99.90;;;;;;5055456;28;20028;-71
2021/12/30 05:53:03;;;;;;;8.35;5.15;;;1.70;99.90;;;;;;5054458;28;20115;-71
2021/12/30 05:55:29;;;;;;;8.00;4.78;;;1.70;99.90;;;;;;5055199;28;20370;-71
2021/12/30 05:57:56;;;;;;;8.38;4.78;;;1.70;99.90;;;;;;5055366;28;20033;-71
2021/12/30 06:00:24;;;;;;;6.93;4.65;;;1.70;99.90;;;;;;5056030;28;20040;-71
2021/12/30 06:02:51;;;;;;;6.25;4.03;;;1.70;99.90;;;;;;5055552;28;20060;-71
2021/12/30 06:05:17;;;;;;;7.63;5.20;;;1.70;99.90;;;;;;5055262;28;20100;-71
2021/12/30 06:07:43;;;;;;;16.17;10.40;;;1.70;99.90;;;;;;5055233;28;20144;-71
2021/12/30 06:10:10;;;;;;;11.00;6.95;;;1.70;99.90;;;;;;5054798;28;20485;-71
2021/12/30 06:12:36;;;;;;;10.93;6.38;;;1.80;99.90;;;;;;5055105;28;20037;-71
2021/12/30 06:15:02;;;;;;;7.25;5.00;;;1.80;99.90;;;;;;5055108;28;20028;-71
2021/12/30 06:17:28;;;;;;;7.82;4.80;;;1.80;99.90;;;;;;5053757;28;20029;-71
2021/12/30 06:19:54;;;;;;;7.22;4.60;;;1.80;99.90;;;;;;5054000;28;20036;-71
2021/12/30 06:22:20;;;;;;;7.28;4.00;;;1.80;99.90;;;;;;5054890;28;20036;-71
2021/12/30 06:24:46;;;;;;;7.85;4.85;;;1.80;99.90;;;;;;5053448;28;20135;-71
2021/12/30 06:27:11;;;;;;;8.55;5.60;;;1.80;99.90;;;;;;5055179;28;20029;-71
2021/12/30 06:29:38;;;;;;;10.98;6.50;;;1.80;99.90;;;;;;5055050;28;20017;-71
2021/12/30 06:32:07;;;;;;;8.18;5.38;;;1.80;99.90;;;;;;5054770;28;20110;-71
2021/12/30 06:34:33;;;;;;;8.40;5.22;;;1.80;99.90;;;;;;5054618;28;20075;-71
2021/12/30 06:36:59;;;;;;;7.57;4.80;;;1.80;99.90;;;;;;5054906;28;20031;-71
2021/12/30 06:39:24;;;;;;;15.32;7.55;;;1.80;99.90;;;;;;5054295;28;20021;-71
2021/12/30 06:41:50;;;;;;;13.30;8.05;;;1.80;99.90;;;;;;5054478;28;20052;-71
2021/12/30 06:44:16;;;;;;;10.65;7.10;;;1.80;99.90;;;;;;5054583;28;20031;-71
2021/12/30 06:46:51;;;;;;;11.07;6.65;;;1.80;99.90;;;;;;5054499;28;20386;-71
2021/12/30 06:49:17;;;;;;;9.95;6.53;;;1.80;99.90;;;;;;5054711;28;20013;-72
2021/12/30 06:51:43;;;;;;;12.48;7.30;;;1.80;99.90;;;;;;5054548;28;20048;-71
2021/12/30 06:54:09;;;;;;;12.38;7.38;;;1.80;99.90;;;;;;5054116;28;20017;-73
2021/12/30 06:56:35;;;;;;;11.75;7.10;;;1.80;99.90;;;;;;5054329;28;20493;-73
2021/12/30 06:59:02;;;;;;;11.93;8.10;;;1.80;99.90;;;;;;5054403;28;20044;-72
2021/12/30 07:01:30;;;;;;;13.23;9.85;;;1.80;99.90;;;;;;5054240;28;20136;-73
2021/12/30 07:03:56;;;;;;;12.95;9.80;;;1.90;99.90;;;;;;5054624;28;20032;-73
2021/12/30 07:06:22;;;;;;;14.95;8.75;;;1.90;99.90;;;;;;5054143;28;20384;-74
2021/12/30 07:08:48;;;;;;;12.57;8.35;;;1.90;99.90;;;;;;5053989;28;20114;-73
2021/12/30 07:11:14;;;;;;;14.55;7.47;;;1.80;99.90;;;;;;5054060;28;20079;-73
2021/12/30 07:13:40;;;;;;;20.02;12.05;;;1.80;99.90;;;;;;5053992;28;20047;-73
2021/12/30 07:16:06;;;;;;;16.00;10.77;;;1.80;99.90;;;;;;5053910;28;20060;-74
2021/12/30 07:18:32;;;;;;;13.43;8.38;;;1.80;99.90;;;;;;5054208;28;20103;-73
2021/12/30 07:20:57;;;;;;;14.52;8.82;;;1.80;99.90;;;;;;5053746;28;20545;-73
2021/12/30 07:23:23;;;;;;;13.10;8.45;;;1.80;99.90;;;;;;5053719;28;20021;-74
2021/12/30 07:25:49;;;;;;;40.60;20.88;;;1.80;99.90;;;;;;5052264;28;20376;-73
2021/12/30 07:28:15;;;;;;;26.45;14.73;;;1.80;99.90;;;;;;5052842;28;20039;-74
2021/12/30 07:30:40;;;;;;;23.27;12.95;;;1.80;99.90;;;;;;5060252;23;20071;-81
2021/12/30 07:33:07;;;;;;;20.80;12.57;;;1.80;99.90;;;;;;5035781;28;20029;-81
2021/12/30 07:35:35;;;;;;;21.55;14.23;;;1.80;99.90;;;;;;5037003;28;20048;-79
2021/12/30 07:38:01;;;;;;;39.90;23.85;;;1.80;99.90;;;;;;5016829;28;20095;-80
2021/12/30 07:40:27;;;;;;;17.48;10.95;;;1.80;99.90;;;;;;5031369;28;20397;-80
2021/12/30 07:42:53;;;;;;;16.70;10.27;;;1.90;99.90;;;;;;5034586;28;20120;-79
2021/12/30 07:45:19;;;;;;;61.13;28.73;;;1.90;99.90;;;;;;5034673;28;20456;-79
2021/12/30 07:47:45;;;;;;;39.58;22.30;;;1.90;99.90;;;;;;5033852;28;20025;-80
2021/12/30 07:50:12;;;;;;;36.15;16.73;;;1.90;99.90;;;;;;5034465;28;20040;-80
2021/12/30 07:52:39;;;;;;;14.60;7.70;;;2.00;99.90;;;;;;5034820;28;20120;-79
2021/12/30 07:55:09;;;;;;;16.63;9.75;;;2.00;99.90;;;;;;5035941;28;20398;-80
2021/12/30 07:57:35;;;;;;;26.63;13.48;;;2.00;99.90;;;;;;5033472;28;20033;-80
2021/12/30 08:00:04;;;;;;;24.98;13.25;;;2.00;99.90;;;;;;5034995;28;20043;-80
2021/12/30 08:02:30;;;;;;;23.00;11.52;;;2.00;99.90;;;;;;5026005;28;20035;-79
2021/12/30 08:04:56;;;;;;;20.42;10.77;;;2.10;99.90;;;;;;5032098;28;20017;-80
2021/12/30 08:07:24;;;;;;;24.95;13.35;;;2.20;99.90;;;;;;5031442;28;20064;-80
2021/12/30 08:09:50;;;;;;;17.80;9.50;;;2.20;99.90;;;;;;5032659;28;20428;-79
2021/12/30 08:12:16;;;;;;;13.77;7.93;;;2.20;99.90;;;;;;5034039;28;20038;-80
2021/12/30 08:14:42;;;;;;;26.05;16.88;;;2.30;99.90;;;;;;5033837;28;20021;-80
2021/12/30 08:17:08;;;;;;;18.50;11.88;;;2.40;99.90;;;;;;5033100;28;20033;-79
2021/12/30 08:19:34;;;;;;;19.17;11.55;;;2.40;99.90;;;;;;5032844;28;20044;-80
2021/12/30 08:22:00;;;;;;;16.58;9.90;;;2.40;99.90;;;;;;5032786;28;20037;-79
2021/12/30 08:24:27;;;;;;;15.60;9.95;;;2.40;99.90;;;;;;5034376;28;20385;-79
2021/12/30 08:26:52;;;;;;;15.73;10.30;;;2.40;99.90;;;;;;5034457;28;20605;-79
2021/12/30 08:29:18;;;;;;;16.13;9.40;;;2.40;99.90;;;;;;5032918;28;20124;-80
2021/12/30 08:31:44;;;;;;;13.40;8.90;;;2.40;99.90;;;;;;5034167;28;20382;-80
2021/12/30 08:34:09;;;;;;;13.52;8.18;;;2.40;99.90;;;;;;5032321;28;20072;-80
2021/12/30 08:36:35;;;;;;;15.35;8.88;;;2.50;99.90;;;;;;5034622;28;20022;-80
2021/12/30 08:39:01;;;;;;;17.35;10.73;;;2.50;99.90;;;;;;5035030;28;20024;-80
2021/12/30 08:41:27;;;;;;;14.45;9.10;;;2.50;99.90;;;;;;5034383;28;20025;-80
2021/12/30 08:43:53;;;;;;;16.02;9.18;;;2.50;99.90;;;;;;5038448;28;20520;-79
2021/12/30 08:46:19;;;;;;;17.33;9.75;;;2.50;99.90;;;;;;5038348;28;20396;-81
2021/12/30 08:48:44;;;;;;;17.10;10.05;;;2.50;99.90;;;;;;5037705;28;20109;-81
2021/12/30 08:51:10;;;;;;;16.05;10.63;;;2.50;99.90;;;;;;5037888;28;20025;-78
2021/12/30 08:53:40;;;;;;;15.57;9.52;;;2.60;99.90;;;;;;5037913;28;20021;-80
2021/12/30 08:56:08;;;;;;;14.90;8.98;;;2.60;99.90;;;;;;5034719;28;20022;-77
2021/12/30 08:58:34;;;;;;;25.23;14.63;;;2.60;99.90;;;;;;5028377;28;20032;-77
2021/12/30 09:01:00;;;;;;;20.50;11.38;;;2.60;99.90;;;;;;5034456;28;20566;-77
2021/12/30 09:03:26;;;;;;;19.13;11.38;;;2.70;99.90;;;;;;5034047;28;20030;-77
2021/12/30 09:05:51;;;;;;;34.80;18.45;;;2.80;99.90;;;;;;5036390;28;20022;-80
2021/12/30 09:08:17;;;;;;;18.30;11.18;;;2.80;99.90;;;;;;5035806;28;20057;-78
2021/12/30 09:10:45;;;;;;;13.93;9.40;;;2.80;99.90;;;;;;5035297;28;20462;-77
2021/12/30 09:13:14;;;;;;;12.07;7.70;;;2.80;99.90;;;;;;5033380;28;20029;-77
2021/12/30 09:15:39;;;;;;;12.40;8.77;;;2.80;99.90;;;;;;5034198;28;20026;-77
2021/12/30 09:18:06;;;;;;;17.30;11.45;;;2.80;99.90;;;;;;5035649;28;20504;-78
2021/12/30 09:20:35;;;;;;;25.52;13.05;;;2.80;99.90;;;;;;5034439;28;20496;-77
2021/12/30 09:23:03;;;;;;;21.77;12.25;;;2.80;99.90;;;;;;5034312;28;20021;-77
2021/12/30 09:25:30;;;;;;;20.38;12.10;;;2.80;99.90;;;;;;5034537;28;20026;-77
2021/12/30 09:27:57;;;;;;;19.67;12.88;;;2.90;99.90;;;;;;5034445;28;20105;-77
2021/12/30 09:30:25;;;;;;;22.83;13.88;;;2.90;99.90;;;;;;5033352;28;20116;-77
2021/12/30 09:32:53;;;;;;;19.35;14.13;;;2.90;99.90;;;;;;4996210;28;1133925;-77
2021/12/30 09:35:19;;;;;;;19.05;12.32;;;2.90;99.90;;;;;;5035952;28;20470;-77
2021/12/30 09:37:45;;;;;;;18.75;11.88;;;2.90;99.90;;;;;;5035074;28;20060;-77
2021/12/30 09:40:14;;;;;;;19.80;11.93;;;3.00;99.90;;;;;;5036501;28;20031;-77
2021/12/30 09:42:47;;;;;;;20.77;13.73;;;3.00;99.90;;;;;;5029922;28;20018;-77
2021/12/30 09:45:14;;;;;;;17.10;11.00;;;3.00;99.90;;;;;;5036639;28;20022;-77
2021/12/30 09:47:51;;;;;;;16.98;10.77;;;3.00;99.90;;;;;;5043036;28;20021;-77
2021/12/30 09:50:19;;;;;;;22.05;12.63;;;3.00;99.90;;;;;;5053252;28;20536;-77
2021/12/30 09:52:45;;;;;;;17.65;10.88;;;3.00;99.90;;;;;;5048028;28;20449;-77
2021/12/30 09:55:11;;;;;;;20.80;11.68;;;3.00;99.90;;;;;;5034372;28;20057;-77
2021/12/30 09:57:38;;;;;;;17.17;10.82;;;3.10;99.90;;;;;;5031967;28;20036;-77
2021/12/30 10:00:07;;;;;;;16.85;10.30;;;3.10;99.90;;;;;;5035877;28;20076;-77
2021/12/30 10:02:33;;;;;;;15.65;9.35;;;3.10;99.90;;;;;;5034350;28;20047;-77
2021/12/30 10:05:11;;;;;;;14.98;9.40;;;3.10;99.90;;;;;;5036442;28;20034;-77
2021/12/30 10:07:41;;;;;;;13.43;8.90;;;3.10;99.90;;;;;;5036233;28;20050;-77
2021/12/30 10:10:25;;;;;;;15.07;10.18;;;3.10;99.90;;;;;;5036368;28;20133;-77
2021/12/30 10:12:51;;;;;;;19.52;11.30;;;3.10;99.90;;;;;;5028111;28;20049;-77
2021/12/30 10:15:19;;;;;;;20.05;11.68;;;3.20;99.90;;;;;;5019880;28;20072;-77
2021/12/30 10:17:54;;;;;;;18.92;12.23;;;3.20;99.90;;;;;;5017172;28;20486;-77
2021/12/30 10:20:30;;;;;;;21.02;12.88;;;3.30;99.90;;;;;;5019993;28;20049;-78
2021/12/30 10:23:08;;;;;;;18.85;12.73;;;3.30;99.90;;;;;;5034913;28;20037;-81
2021/12/30 10:25:55;;;;;;;22.63;14.50;;;3.30;99.90;;;;;;5037623;28;20028;-77
2021/12/30 10:28:33;;;;;;;20.52;13.45;;;3.30;99.90;;;;;;5028247;28;20101;-77
2021/12/30 10:31:01;;;;;;;17.17;11.65;;;3.40;99.90;;;;;;5021042;28;20108;-77
2021/12/30 10:33:29;;;;;;;20.17;13.65;;;3.40;99.90;;;;;;5033491;28;20037;-77
2021/12/30 10:35:55;;;;;;;18.55;13.35;;;3.40;99.90;;;;;;5035297;28;20033;-77
2021/12/30 10:38:22;;;;;;;22.02;13.40;;;3.40;99.90;;;;;;5034280;28;20052;-77
2021/12/30 10:40:51;;;;;;;19.73;13.32;;;3.40;99.90;;;;;;5033089;28;20073;-78
2021/12/30 10:43:30;;;;;;;20.45;13.25;;;3.40;99.90;;;;;;5033455;28;20028;-77
2021/12/30 10:46:07;;;;;;;25.60;16.80;;;3.40;99.90;;;;;;5031994;28;20040;-78
2021/12/30 10:48:34;;;;;;;22.05;15.80;;;3.40;99.90;;;;;;5033390;28;20017;-77
2021/12/30 10:51:15;;;;;;;22.70;14.75;;;3.30;99.90;;;;;;5033422;28;20524;-77
2021/12/30 10:53:41;;;;;;;25.95;15.20;;;3.40;99.90;;;;;;5031944;28;20030;-77
2021/12/30 10:56:20;;;;;;;26.40;16.52;;;3.40;99.90;;;;;;5033241;28;20188;-77
2021/12/30 10:58:46;;;;;;;23.27;14.82;;;3.40;99.90;;;;;;5031215;28;20075;-77
2021/12/30 11:01:19;;;;;;;23.73;14.98;;;3.40;99.90;;;;;;5032143;28;20029;-77
2021/12/30 11:03:56;;;;;;;19.42;12.63;;;3.50;99.90;;;;;;5015658;28;20171;-77
2021/12/30 11:06:22;;;;;;;18.70;12.30;;;3.50;99.90;;;;;;5015465;28;20026;-77
2021/12/30 11:09:10;;;;;;;19.80;11.82;;;3.50;99.90;;;;;;5015514;28;20034;-78
2021/12/30 11:11:40;;;;;;;17.52;11.32;;;3.50;99.90;;;;;;5033691;28;20017;-77
2021/12/30 11:14:09;;;;;;;16.75;11.38;;;3.60;99.90;;;;;;5026049;28;20482;-77
2021/12/30 11:17:19;;;;;;;18.52;12.38;;;3.60;99.90;;;;;;5023933;28;20033;-77
2021/12/30 11:19:49;;;;;;;17.27;12.20;;;3.60;99.90;;;;;;4976986;28;20089;-77
2021/12/30 11:22:23;;;;;;;15.63;10.25;;;3.60;99.90;;;;;;5023758;28;20042;-77
2021/12/30 11:24:50;;;;;;;18.45;12.00;;;3.60;99.90;;;;;;5030133;28;20489;-77
2021/12/30 11:27:17;;;;;;;18.77;11.75;;;3.60;99.90;;;;;;5033095;28;20088;-77
2021/12/30 11:29:46;;;;;;;20.25;12.73;;;3.60;99.90;;;;;;5035385;28;20013;-77
2021/12/30 11:32:16;;;;;;;19.88;11.90;;;3.50;99.90;;;;;;5033339;28;20116;-77
2021/12/30 11:34:42;;;;;;;18.73;12.65;;;3.50;99.90;;;;;;5028116;28;20017;-77
2021/12/30 11:37:08;;;;;;;24.50;14.60;;;3.50;99.90;;;;;;5032341;28;20370;-78
2021/12/30 11:39:34;;;;;;;19.85;13.32;;;3.50;99.90;;;;;;5033169;28;20032;-77
2021/12/30 11:42:24;;;;;;;20.40;12.50;;;3.50;99.90;;;;;;5032333;28;20029;-77
2021/12/30 11:45:00;;;;;;;24.52;13.93;;;3.50;99.90;;;;;;5014725;28;20022;-77
2021/12/30 11:47:36;;;;;;;62.53;27.90;;;3.50;99.90;;;;;;5031352;28;20013;-77
2021/12/30 11:50:10;;;;;;;51.15;22.92;;;3.50;99.90;;;;;;5033183;28;20025;-77
2021/12/30 11:52:56;;;;;;;50.40;25.33;;;3.50;99.90;;;;;;5034460;28;20022;-78
2021/12/30 11:55:41;;;;;;;42.58;23.25;;;3.60;99.90;;;;;;5032694;28;20029;-77
2021/12/30 11:58:29;;;;;;;33.83;19.02;;;3.60;99.90;;;;;;5030289;28;20097;-77
2021/12/30 12:01:10;;;;;;;28.75;17.70;;;3.60;99.90;;;;;;5033742;28;20422;-77
2021/12/30 12:03:52;;;;;;;24.05;15.32;;;3.60;99.90;;;;;;5020680;28;20018;-78
2021/12/30 12:06:35;;;;;;;22.67;13.13;;;3.60;99.90;;;;;;5024803;28;20112;-78
2021/12/30 12:09:07;;;;;;;18.55;12.35;;;3.60;99.90;;;;;;5031507;28;20022;-78
2021/12/30 12:11:42;;;;;;;21.88;13.38;;;3.60;99.90;;;;;;5032130;28;20092;-78
2021/12/30 12:14:26;;;;;;;19.20;12.07;;;3.60;99.90;;;;;;5015655;28;20030;-78
2021/12/30 12:16:55;;;;;;;22.30;15.10;;;3.60;99.90;;;;;;5013481;28;20030;-78
2021/12/30 12:19:32;;;;;;;31.00;21.30;;;3.60;99.90;;;;;;5018275;28;20025;-77
2021/12/30 12:21:58;;;;;;;24.85;17.38;;;3.60;99.90;;;;;;5017135;28;20034;-77
2021/12/30 12:24:32;;;;;;;17.88;12.18;;;3.60;99.90;;;;;;5020739;28;20056;-77
2021/12/30 12:27:07;;;;;;;18.52;11.48;;;3.60;99.90;;;;;;5039569;28;20029;-80
2021/12/30 12:29:42;;;;;;;18.00;12.60;;;3.50;99.90;;;;;;5039827;28;20049;-80
2021/12/30 12:32:11;;;;;;;18.38;12.25;;;3.50;99.90;;;;;;5041517;28;20037;-80
2021/12/30 12:34:55;;;;;;;19.73;13.48;;;3.50;99.90;;;;;;5044062;28;20022;-78
2021/12/30 12:37:32;;;;;;;21.10;15.45;;;3.50;99.90;;;;;;5029443;28;20045;-78
2021/12/30 12:40:20;;;;;;;20.45;14.63;;;3.50;99.90;;;;;;5039960;28;20017;-81
2021/12/30 12:42:49;;;;;;;16.27;11.50;;;3.40;99.90;;;;;;5036195;28;20028;-77
2021/12/30 12:45:24;;;;;;;14.85;10.70;;;3.40;99.90;;;;;;5027433;28;20530;-77
2021/12/30 12:48:16;;;;;;;23.80;11.98;;;3.40;99.90;;;;;;5033663;28;20030;-80
2021/12/30 12:50:46;;;;;;;44.72;24.85;;;3.30;99.90;;;;;;5025100;28;20489;-77
2021/12/30 12:53:38;;;;;;;43.20;24.83;;;3.30;99.90;;;;;;5031255;28;20026;-78
2021/12/30 12:56:37;;;;;;;183.60;86.50;;;3.30;99.90;;;;;;5034509;28;20025;-77